createdAt,value
2019-01-16T21:44:30.792Z,99760.45
2019-01-16T21:47:09.809Z,99760.05
2019-01-16T21:49:46.687Z,99762.59
2019-01-16T21:52:28.948Z,99749.79
2019-01-16T21:55:04.991Z,99742.66
2019-01-16T21:57:38.301Z,99732.20
2019-01-16T22:00:33.048Z,99723.95
2019-01-16T22:03:15.312Z,99719.40
2019-01-16T22:05:51.639Z,99728.59
2019-01-16T22:08:37.284Z,99737.56
2019-01-16T22:11:16.148Z,99722.48
2019-01-16T22:13:52.365Z,99725.83
2019-01-16T22:16:34.583Z,99722.66
2019-01-16T22:19:17.883Z,99707.72
2019-01-16T22:21:51.474Z,99697.98
2019-01-16T22:24:30.404Z,99692.05
2019-01-16T22:27:03.620Z,99678.72
2019-01-16T22:29:37.440Z,99675.14
2019-01-16T22:32:13.653Z,99680.55
2019-01-16T22:34:46.949Z,99682.91
2019-01-16T22:37:22.954Z,99671.80
2019-01-16T22:40:05.390Z,99686.98
2019-01-16T22:42:38.641Z,99687.69
2019-01-16T22:45:24.059Z,99682.47
2019-01-16T22:47:57.280Z,99659.23
2019-01-16T22:50:36.834Z,99654.77
2019-01-16T22:53:08.231Z,99650.17
2019-01-16T22:55:55.019Z,99627.56
2019-01-16T22:58:31.337Z,99621.73
2019-01-16T23:01:10.846Z,99632.02
2019-01-16T23:03:46.776Z,99661.53
2019-01-16T23:06:33.227Z,99631.27
2019-01-16T23:09:17.223Z,99640.31
2019-01-16T23:11:53.151Z,99639.38
2019-01-16T23:14:35.507Z,99642.23
2019-01-16T23:17:17.980Z,99633.81
2019-01-16T23:20:03.284Z,99629.61
2019-01-16T23:22:36.673Z,99633.05
2019-01-16T23:25:09.905Z,99632.83
2019-01-16T23:27:49.556Z,99615.61
2019-01-16T23:30:26.308Z,99630.42
2019-01-16T23:33:08.548Z,99635.59
2019-01-16T23:35:44.655Z,99626.01
2019-01-16T23:38:17.863Z,99609.55
2019-01-16T23:40:51.165Z,99609.69
2019-01-16T23:43:33.177Z,99601.36
2019-01-16T23:46:06.408Z,99600.09
2019-01-16T23:48:42.673Z,99602.67
2019-01-16T23:51:18.958Z,99610.97
2019-01-16T23:53:56.226Z,99594.20
2019-01-16T23:56:45.925Z,99600.52
2019-01-16T23:59:25.053Z,99589.48
